createdAt,value
2023-07-31T00:04:07.205Z,5.25
2023-07-31T00:09:11.369Z,5.05
2023-07-31T00:14:15.761Z,3.70
2023-07-31T00:29:29.716Z,5.78
2023-07-31T00:34:36.592Z,3.28
2023-07-31T00:39:41.417Z,4.22
2023-07-31T00:44:45.942Z,5.25
2023-07-31T00:49:52.261Z,3.35
2023-07-31T00:54:56.810Z,3.67
2023-07-31T01:00:01.219Z,4.68
2023-07-31T01:05:07.745Z,3.92
2023-07-31T01:10:19.166Z,9.00
2023-07-31T01:15:23.694Z,3.88
2023-07-31T01:20:32.424Z,3.28
2023-07-31T01:25:56.923Z,4.75
2023-07-31T01:31:04.807Z,4.55
2023-07-31T01:36:10.556Z,3.60
2023-07-31T01:41:16.185Z,3.67
2023-07-31T01:46:20.972Z,2.97
2023-07-31T01:51:25.141Z,3.88
2023-07-31T01:56:30.664Z,5.32
2023-07-31T02:01:34.873Z,2.30
2023-07-31T02:06:41.852Z,5.07
2023-07-31T02:11:48.104Z,6.03
2023-07-31T02:16:52.679Z,6.10
2023-07-31T02:21:57.531Z,3.30
2023-07-31T02:27:03.326Z,3.38
2023-07-31T02:32:08.424Z,4.38
2023-07-31T02:37:13.683Z,4.63
2023-07-31T02:42:19.664Z,4.95
2023-07-31T02:47:24.946Z,3.42
2023-07-31T02:52:29.284Z,7.20
2023-07-31T02:57:35.056Z,4.90
2023-07-31T03:02:39.294Z,2.85
2023-07-31T03:07:44.017Z,4.90
2023-07-31T03:12:50.529Z,5.53
2023-07-31T03:17:54.787Z,3.72
2023-07-31T03:22:59.294Z,3.67
2023-07-31T03:28:05.451Z,3.28
2023-07-31T03:33:09.610Z,4.80
2023-07-31T03:38:13.901Z,8.68
2023-07-31T03:43:19.365Z,3.38
2023-07-31T03:48:23.829Z,3.40
2023-07-31T03:53:27.918Z,4.63
2023-07-31T03:58:33.943Z,4.65
2023-07-31T04:03:38.206Z,5.72
2023-07-31T04:08:42.318Z,3.58
2023-07-31T04:13:47.882Z,3.73
2023-07-31T04:18:52.171Z,2.70
2023-07-31T04:23:57.329Z,4.22
2023-07-31T04:39:11.163Z,3.20
2023-07-31T04:44:16.863Z,3.58
2023-07-31T04:49:21.449Z,6.55
2023-07-31T04:54:27.564Z,5.70
2023-07-31T04:59:33.585Z,3.40
2023-07-31T05:04:37.899Z,5.03
2023-07-31T05:09:42.440Z,2.92
2023-07-31T05:14:48.126Z,3.95
2023-07-31T05:19:52.282Z,4.30
2023-07-31T05:24:57.254Z,10.38
2023-07-31T05:30:03.256Z,5.70
2023-07-31T05:35:10.117Z,4.80
2023-07-31T05:40:14.511Z,7.35
2023-07-31T05:45:20.405Z,4.22
2023-07-31T05:50:24.698Z,4.20
2023-07-31T05:55:29.404Z,3.63
2023-07-31T06:00:35.261Z,3.63
2023-07-31T06:05:39.644Z,6.35
2023-07-31T06:10:44.004Z,6.53
2023-07-31T06:15:49.839Z,4.05
2023-07-31T06:20:55.031Z,4.95
2023-07-31T06:26:00.099Z,2.50
2023-07-31T06:31:05.888Z,6.35
2023-07-31T06:36:10.364Z,2.47
2023-07-31T06:41:15.048Z,2.65
2023-07-31T06:56:28.664Z,4.22
2023-07-31T07:01:34.657Z,3.67
2023-07-31T07:06:39.087Z,3.35
2023-07-31T07:11:43.676Z,7.38
2023-07-31T07:16:53.663Z,3.05
2023-07-31T07:21:58.170Z,4.13
2023-07-31T07:27:02.948Z,7.05
2023-07-31T07:32:09.615Z,3.17
2023-07-31T07:37:14.473Z,4.45
2023-07-31T07:42:18.597Z,5.00
2023-07-31T07:47:24.092Z,6.25
2023-07-31T07:52:28.323Z,6.70
2023-07-31T07:57:32.739Z,3.85
2023-07-31T08:02:38.489Z,3.45
2023-07-31T08:07:42.604Z,5.95
2023-07-31T08:12:46.745Z,3.85
2023-07-31T08:17:52.303Z,5.05
2023-07-31T08:22:56.462Z,2.60
2023-07-31T08:28:02.033Z,4.25
2023-07-31T08:33:07.583Z,6.03
2023-07-31T08:38:12.042Z,5.47
2023-07-31T08:43:16.409Z,4.10
2023-07-31T08:48:24.621Z,8.40
2023-07-31T08:53:28.979Z,5.60
2023-07-31T08:58:34.602Z,4.47
2023-07-31T09:03:42.862Z,3.00
2023-07-31T09:08:47.273Z,2.55
2023-07-31T09:13:52.884Z,3.53
2023-07-31T09:18:59.777Z,4.07
2023-07-31T09:24:04.340Z,4.30
2023-07-31T09:29:20.957Z,4.32
2023-07-31T09:34:38.956Z,3.00
2023-07-31T09:39:55.836Z,2.92
2023-07-31T09:45:10.975Z,3.97
2023-07-31T09:50:17.206Z,2.80
2023-07-31T09:55:22.352Z,1.85
2023-07-31T10:00:29.382Z,3.88
2023-07-31T10:05:39.263Z,4.55
2023-07-31T10:10:46.115Z,1.73
2023-07-31T10:15:50.655Z,3.67
2023-07-31T10:20:57.691Z,10.07
2023-07-31T10:26:03.422Z,5.03
2023-07-31T10:31:08.843Z,2.78
2023-07-31T10:36:20.199Z,5.80
2023-07-31T10:41:32.183Z,4.03
2023-07-31T10:46:36.415Z,2.97
2023-07-31T10:51:44.521Z,2.85
2023-07-31T10:56:53.699Z,6.15
2023-07-31T11:01:59.158Z,4.10
2023-07-31T11:07:09.643Z,2.90
2023-07-31T11:12:13.986Z,5.55
2023-07-31T11:17:18.085Z,4.28
2023-07-31T11:22:24.228Z,2.78
2023-07-31T11:27:30.463Z,4.63
2023-07-31T11:32:34.914Z,2.35
2023-07-31T11:37:44.804Z,4.75
2023-07-31T11:42:48.963Z,4.72
2023-07-31T11:47:53.806Z,2.17
2023-07-31T11:53:05.657Z,5.55
2023-07-31T11:58:10.421Z,3.55
2023-07-31T12:03:14.973Z,2.60
2023-07-31T12:08:24.068Z,2.58
2023-07-31T12:13:29.231Z,5.20
2023-07-31T12:18:39.116Z,5.13
2023-07-31T12:23:47.033Z,3.75
2023-07-31T12:28:53.052Z,4.63
2023-07-31T12:33:58.508Z,3.17
2023-07-31T12:39:05.668Z,5.47
2023-07-31T12:44:11.175Z,3.60
2023-07-31T12:49:15.647Z,7.30
2023-07-31T12:54:21.193Z,2.65
2023-07-31T12:59:25.694Z,3.42
2023-07-31T13:04:30.056Z,3.15
2023-07-31T13:14:39.942Z,8.18
2023-07-31T13:19:44.470Z,7.78
2023-07-31T13:24:50.207Z,2.78
2023-07-31T13:29:54.772Z,4.40
2023-07-31T13:34:59.350Z,4.07
2023-07-31T13:45:11.188Z,2.38
2023-07-31T13:50:15.692Z,3.03
2023-07-31T14:00:26.076Z,2.63
2023-07-31T14:05:30.292Z,3.13
2023-07-31T14:15:40.320Z,5.28
2023-07-31T14:20:44.766Z,4.60
2023-07-31T14:25:50.281Z,2.60
2023-07-31T14:30:54.797Z,3.00
2023-07-31T14:35:59.810Z,2.88
2023-07-31T14:41:05.285Z,2.67
2023-07-31T14:46:09.622Z,2.63
2023-07-31T14:51:15.614Z,3.75
2023-07-31T14:56:21.250Z,2.50
2023-07-31T15:01:26.685Z,3.85
2023-07-31T15:06:30.944Z,3.25
2023-07-31T15:11:36.725Z,5.03
2023-07-31T15:16:41.196Z,4.13
2023-07-31T15:21:46.003Z,4.40
2023-07-31T15:26:51.616Z,4.18
2023-07-31T15:31:56.217Z,2.63
2023-07-31T15:37:01.497Z,2.70
2023-07-31T15:42:10.342Z,2.33
2023-07-31T15:47:14.961Z,2.63
2023-07-31T15:52:19.834Z,3.42
2023-07-31T15:57:26.829Z,2.85
2023-07-31T16:02:32.670Z,3.92
2023-07-31T16:07:36.860Z,2.72
2023-07-31T16:12:42.874Z,3.50
2023-07-31T16:17:47.471Z,3.08
2023-07-31T16:22:52.022Z,7.45
2023-07-31T16:27:57.916Z,3.40
2023-07-31T16:33:02.267Z,3.00
2023-07-31T16:38:07.486Z,4.35
2023-07-31T16:43:13.048Z,5.65
2023-07-31T16:48:17.453Z,3.63
2023-07-31T16:53:21.627Z,5.93
2023-07-31T16:58:27.080Z,3.20
2023-07-31T17:03:31.521Z,5.05
2023-07-31T17:13:41.099Z,9.93
2023-07-31T17:18:45.387Z,4.18
2023-07-31T17:23:49.513Z,4.20
2023-07-31T17:28:54.969Z,5.63
2023-07-31T17:33:59.371Z,3.38
2023-07-31T17:44:10.261Z,3.83
2023-07-31T17:49:14.743Z,5.50
2023-07-31T17:59:24.890Z,6.40
2023-07-31T18:04:29.159Z,3.22
2023-07-31T18:09:35.472Z,6.10
2023-07-31T18:14:41.152Z,7.25
2023-07-31T18:19:45.584Z,4.45
2023-07-31T18:24:49.983Z,5.18
2023-07-31T18:29:55.847Z,3.45
2023-07-31T18:35:00.345Z,4.07
2023-07-31T18:45:10.580Z,6.75
2023-07-31T18:50:14.876Z,6.85
2023-07-31T18:55:19.385Z,4.03
2023-07-31T19:00:25.617Z,6.53
2023-07-31T19:05:29.732Z,6.97
2023-07-31T19:10:35.691Z,5.95
2023-07-31T19:15:41.140Z,6.13
2023-07-31T19:20:45.818Z,7.22
2023-07-31T19:30:56.106Z,5.88
2023-07-31T19:36:01.831Z,5.97
2023-07-31T19:41:06.508Z,5.07
2023-07-31T19:51:16.478Z,5.95
2023-07-31T19:56:20.881Z,7.25
2023-07-31T20:01:26.708Z,10.32
2023-07-31T20:06:31.163Z,10.88
2023-07-31T20:11:35.679Z,8.02
2023-07-31T20:16:42.658Z,8.48
2023-07-31T20:21:47.064Z,9.00
2023-07-31T20:26:51.673Z,8.23
2023-07-31T20:31:57.386Z,9.68
2023-07-31T20:37:01.907Z,8.20
2023-07-31T20:47:13.128Z,8.02
2023-07-31T20:52:17.660Z,12.90
2023-07-31T20:57:21.798Z,5.53
2023-07-31T21:02:27.994Z,9.50
2023-07-31T21:07:32.314Z,12.20
2023-07-31T21:12:36.706Z,8.07
2023-07-31T21:17:42.573Z,13.23
2023-07-31T21:22:47.173Z,9.07
2023-07-31T21:27:51.755Z,37.00
2023-07-31T21:32:58.257Z,31.33
2023-07-31T21:38:02.827Z,16.50
2023-07-31T21:43:07.735Z,11.38
2023-07-31T21:48:13.265Z,9.23
2023-07-31T21:53:17.814Z,9.68
2023-07-31T21:58:21.987Z,11.00
2023-07-31T22:03:27.491Z,6.55
2023-07-31T22:08:31.630Z,9.98
2023-07-31T22:13:35.793Z,5.80
2023-07-31T22:18:41.482Z,8.00
2023-07-31T22:23:45.968Z,9.05
2023-07-31T22:28:50.539Z,9.57
2023-07-31T22:33:56.158Z,7.72
2023-07-31T22:39:00.488Z,10.73
2023-07-31T22:49:11.279Z,6.20
2023-07-31T22:54:15.900Z,7.03
2023-07-31T22:59:20.059Z,9.93
2023-07-31T23:04:25.552Z,8.00
2023-07-31T23:09:29.699Z,6.75
2023-07-31T23:14:34.178Z,9.20
2023-07-31T23:19:39.653Z,10.82
2023-07-31T23:24:44.666Z,10.57
2023-07-31T23:29:49.308Z,8.48
2023-07-31T23:34:54.793Z,5.03
2023-07-31T23:39:58.978Z,5.72
2023-07-31T23:50:17.145Z,8.98
2023-07-31T23:55:21.643Z,8.52
